Chesnee, South Carolina
Current Conditions -  °F | °C
As of 8:35 PM on Sunday 23 Nov 2014 (Local Time) from KEHO Reporting Station
Light Rain Light Rain  
Wind Chill: 49°   Ceiling: 600
Heat Index: 49°   Visibility: 10mi
Dew Point: 48°   Wind: 0mph
Humidity: 99%   Direction: NA
Pressure: 29.77"   Gusts: NA
Location:  35.15°N, 81.86°W
Report Text: KEHO 240135Z AUTO 00000KT 10SM -RA BKN006 OVC010 09/09 A2977 RMK AO2 P0008 T00930091
Loading
Personal Weather Stations






























Interactive Weather Map New forecast layout! Learn more

10-Day Weather Forecast

Advertisements
Track Severe Weather on mobile